sensor_id;sensor_type;location;lat;lon;timestamp;P1;durP1;ratioP1;P2;durP2;ratioP2
19111;SDS011;9688;51.906;8.376;2022-07-23T06:18:57;9.77;;;5.80;;
19111;SDS011;9688;51.906;8.376;2022-07-23T06:22:34;10.33;;;5.33;;
19111;SDS011;9688;51.906;8.376;2022-07-23T06:25:38;10.20;;;5.90;;
19111;SDS011;9688;51.906;8.376;2022-07-23T06:28:43;11.27;;;4.60;;
19111;SDS011;9688;51.906;8.376;2022-07-23T06:31:48;9.70;;;5.77;;
19111;SDS011;9688;51.906;8.376;2022-07-23T06:34:54;7.50;;;4.50;;
19111;SDS011;9688;51.906;8.376;2022-07-23T06:37:59;6.03;;;4.43;;
19111;SDS011;9688;51.906;8.376;2022-07-23T06:41:04;7.43;;;4.53;;
19111;SDS011;9688;51.906;8.376;2022-07-23T06:44:09;6.83;;;5.00;;
19111;SDS011;9688;51.906;8.376;2022-07-23T06:47:14;8.03;;;4.90;;
19111;SDS011;9688;51.906;8.376;2022-07-23T06:50:21;11.20;;;5.40;;
19111;SDS011;9688;51.906;8.376;2022-07-23T06:53:25;7.33;;;4.77;;
19111;SDS011;9688;51.906;8.376;2022-07-23T06:56:30;8.30;;;4.50;;
19111;SDS011;9688;51.906;8.376;2022-07-23T06:59:35;8.13;;;4.67;;
19111;SDS011;9688;51.906;8.376;2022-07-23T07:02:43;7.53;;;4.67;;
19111;SDS011;9688;51.906;8.376;2022-07-23T07:05:49;8.70;;;5.13;;
19111;SDS011;9688;51.906;8.376;2022-07-23T07:08:55;8.80;;;5.57;;
19111;SDS011;9688;51.906;8.376;2022-07-23T07:12:01;7.40;;;5.37;;
19111;SDS011;9688;51.906;8.376;2022-07-23T07:15:07;7.47;;;5.53;;
19111;SDS011;9688;51.906;8.376;2022-07-23T07:18:13;7.83;;;5.60;;
19111;SDS011;9688;51.906;8.376;2022-07-23T07:21:19;8.23;;;5.53;;
19111;SDS011;9688;51.906;8.376;2022-07-23T07:24:24;12.37;;;5.53;;
19111;SDS011;9688;51.906;8.376;2022-07-23T07:27:29;8.70;;;5.20;;
19111;SDS011;9688;51.906;8.376;2022-07-23T07:30:34;10.23;;;5.60;;
19111;SDS011;9688;51.906;8.376;2022-07-23T07:33:39;14.67;;;7.10;;
19111;SDS011;9688;51.906;8.376;2022-07-23T07:36:46;12.87;;;6.20;;
19111;SDS011;9688;51.906;8.376;2022-07-23T07:39:53;10.87;;;6.33;;
19111;SDS011;9688;51.906;8.376;2022-07-23T07:42:59;8.93;;;5.83;;
19111;SDS011;9688;51.906;8.376;2022-07-23T07:46:05;9.17;;;5.60;;
19111;SDS011;9688;51.906;8.376;2022-07-23T07:49:12;8.97;;;5.20;;
19111;SDS011;9688;51.906;8.376;2022-07-23T07:52:20;10.83;;;5.43;;
19111;SDS011;9688;51.906;8.376;2022-07-23T07:55:25;7.37;;;5.10;;
19111;SDS011;9688;51.906;8.376;2022-07-23T07:58:31;8.23;;;5.37;;
19111;SDS011;9688;51.906;8.376;2022-07-23T08:01:38;10.07;;;5.50;;
19111;SDS011;9688;51.906;8.376;2022-07-23T08:04:43;9.70;;;5.40;;
19111;SDS011;9688;51.906;8.376;2022-07-23T08:07:49;8.47;;;5.33;;
19111;SDS011;9688;51.906;8.376;2022-07-23T08:10:54;7.20;;;5.40;;
19111;SDS011;9688;51.906;8.376;2022-07-23T08:13:59;7.27;;;5.53;;
19111;SDS011;9688;51.906;8.376;2022-07-23T08:17:04;6.60;;;5.23;;
19111;SDS011;9688;51.906;8.376;2022-07-23T08:20:10;10.93;;;5.30;;
19111;SDS011;9688;51.906;8.376;2022-07-23T08:23:19;8.23;;;5.00;;
19111;SDS011;9688;51.906;8.376;2022-07-23T08:26:24;9.73;;;5.20;;
19111;SDS011;9688;51.906;8.376;2022-07-23T08:29:29;9.77;;;4.57;;
19111;SDS011;9688;51.906;8.376;2022-07-23T08:32:33;12.77;;;4.97;;
19111;SDS011;9688;51.906;8.376;2022-07-23T08:35:56;10.83;;;4.60;;
19111;SDS011;9688;51.906;8.376;2022-07-23T08:39:02;9.00;;;4.93;;
19111;SDS011;9688;51.906;8.376;2022-07-23T08:42:07;7.93;;;4.43;;
19111;SDS011;9688;51.906;8.376;2022-07-23T08:45:12;8.33;;;4.20;;
19111;SDS011;9688;51.906;8.376;2022-07-23T08:48:20;8.37;;;4.57;;
19111;SDS011;9688;51.906;8.376;2022-07-23T08:51:27;5.00;;;4.07;;
19111;SDS011;9688;51.906;8.376;2022-07-23T08:54:34;4.87;;;3.60;;
19111;SDS011;9688;51.906;8.376;2022-07-23T08:57:39;5.47;;;3.90;;
19111;SDS011;9688;51.906;8.376;2022-07-23T09:00:44;7.37;;;3.83;;
19111;SDS011;9688;51.906;8.376;2022-07-23T09:03:48;7.20;;;3.40;;
19111;SDS011;9688;51.906;8.376;2022-07-23T09:06:53;5.47;;;3.60;;
19111;SDS011;9688;51.906;8.376;2022-07-23T09:10:06;4.63;;;3.47;;
19111;SDS011;9688;51.906;8.376;2022-07-23T09:16:48;3.57;;;3.23;;
19111;SDS011;9688;51.906;8.376;2022-07-23T09:19:54;4.05;;;3.30;;
19111;SDS011;9688;51.906;8.376;2022-07-23T09:23:13;4.33;;;3.20;;
19111;SDS011;9688;51.906;8.376;2022-07-23T09:26:21;3.67;;;2.65;;
19111;SDS011;9688;51.906;8.376;2022-07-23T09:29:33;2.92;;;2.60;;
19111;SDS011;9688;51.906;8.376;2022-07-23T09:32:38;2.88;;;2.63;;
19111;SDS011;9688;51.906;8.376;2022-07-23T09:35:44;2.90;;;2.70;;
19111;SDS011;9688;51.906;8.376;2022-07-23T09:38:51;4.65;;;2.53;;
19111;SDS011;9688;51.906;8.376;2022-07-23T09:41:58;2.90;;;2.47;;
19111;SDS011;9688;51.906;8.376;2022-07-23T09:45:16;4.00;;;2.83;;
19111;SDS011;9688;51.906;8.376;2022-07-23T09:48:22;4.68;;;3.13;;
19111;SDS011;9688;51.906;8.376;2022-07-23T09:51:29;3.47;;;2.90;;
19111;SDS011;9688;51.906;8.376;2022-07-23T09:54:39;5.72;;;3.00;;
19111;SDS011;9688;51.906;8.376;2022-07-23T09:57:45;4.23;;;2.57;;
19111;SDS011;9688;51.906;8.376;2022-07-23T10:00:53;5.43;;;3.00;;
19111;SDS011;9688;51.906;8.376;2022-07-23T10:03:59;5.03;;;3.28;;
19111;SDS011;9688;51.906;8.376;2022-07-23T10:07:08;3.72;;;2.90;;
19111;SDS011;9688;51.906;8.376;2022-07-23T10:10:14;4.87;;;3.60;;
19111;SDS011;9688;51.906;8.376;2022-07-23T10:13:21;3.90;;;2.60;;
19111;SDS011;9688;51.906;8.376;2022-07-23T10:16:44;3.95;;;2.70;;
19111;SDS011;9688;51.906;8.376;2022-07-23T10:19:49;5.72;;;2.67;;
19111;SDS011;9688;51.906;8.376;2022-07-23T10:22:58;5.68;;;3.03;;
19111;SDS011;9688;51.906;8.376;2022-07-23T10:26:10;4.33;;;3.00;;
19111;SDS011;9688;51.906;8.376;2022-07-23T10:29:24;3.10;;;2.90;;
19111;SDS011;9688;51.906;8.376;2022-07-23T10:32:45;3.22;;;2.63;;
19111;SDS011;9688;51.906;8.376;2022-07-23T10:36:06;2.95;;;2.80;;
19111;SDS011;9688;51.906;8.376;2022-07-23T10:39:14;4.45;;;2.85;;
19111;SDS011;9688;51.906;8.376;2022-07-23T10:42:29;6.97;;;3.05;;
19111;SDS011;9688;51.906;8.376;2022-07-23T10:45:39;5.13;;;2.78;;
19111;SDS011;9688;51.906;8.376;2022-07-23T10:48:44;3.25;;;2.80;;
19111;SDS011;9688;51.906;8.376;2022-07-23T10:55:42;3.15;;;2.40;;
19111;SDS011;9688;51.906;8.376;2022-07-23T10:58:49;5.65;;;2.70;;
19111;SDS011;9688;51.906;8.376;2022-07-23T11:01:56;4.75;;;3.00;;
19111;SDS011;9688;51.906;8.376;2022-07-23T11:05:39;7.53;;;5.28;;
19111;SDS011;9688;51.906;8.376;2022-07-23T11:08:46;3.03;;;2.50;;
19111;SDS011;9688;51.906;8.376;2022-07-23T11:15:47;4.07;;;3.10;;
19111;SDS011;9688;51.906;8.376;2022-07-23T11:19:10;6.00;;;3.10;;
19111;SDS011;9688;51.906;8.376;2022-07-23T11:22:18;3.30;;;2.70;;
19111;SDS011;9688;51.906;8.376;2022-07-23T11:25:39;3.22;;;3.00;;
19111;SDS011;9688;51.906;8.376;2022-07-23T11:28:44;2.70;;;2.50;;
19111;SDS011;9688;51.906;8.376;2022-07-23T11:31:51;4.68;;;2.72;;
19111;SDS011;9688;51.906;8.376;2022-07-23T11:34:57;2.50;;;2.40;;
19111;SDS011;9688;51.906;8.376;2022-07-23T11:38:03;2.88;;;2.38;;
19111;SDS011;9688;51.906;8.376;2022-07-23T11:41:10;2.55;;;2.38;;
19111;SDS011;9688;51.906;8.376;2022-07-23T11:44:23;5.07;;;2.70;;
19111;SDS011;9688;51.906;8.376;2022-07-23T11:47:29;2.97;;;2.30;;
19111;SDS011;9688;51.906;8.376;2022-07-23T11:50:36;2.20;;;2.10;;
19111;SDS011;9688;51.906;8.376;2022-07-23T11:53:41;4.72;;;2.30;;
19111;SDS011;9688;51.906;8.376;2022-07-23T11:56:54;5.75;;;2.53;;
19111;SDS011;9688;51.906;8.376;2022-07-23T12:00:00;4.63;;;2.10;;
19111;SDS011;9688;51.906;8.376;2022-07-23T12:03:11;3.28;;;2.53;;
19111;SDS011;9688;51.906;8.376;2022-07-23T12:06:17;3.85;;;2.42;;
19111;SDS011;9688;51.906;8.376;2022-07-23T12:09:22;1.70;;;1.60;;
19111;SDS011;9688;51.906;8.376;2022-07-23T12:12:27;4.47;;;1.73;;
19111;SDS011;9688;51.906;8.376;2022-07-23T12:15:40;3.92;;;1.75;;
19111;SDS011;9688;51.906;8.376;2022-07-23T12:18:47;2.08;;;1.95;;
19111;SDS011;9688;51.906;8.376;2022-07-23T12:21:52;2.00;;;1.90;;
19111;SDS011;9688;51.906;8.376;2022-07-23T12:24:59;2.40;;;1.55;;
19111;SDS011;9688;51.906;8.376;2022-07-23T12:28:06;9.70;;;2.03;;
19111;SDS011;9688;51.906;8.376;2022-07-23T12:31:13;3.30;;;1.52;;
19111;SDS011;9688;51.906;8.376;2022-07-23T12:34:19;3.50;;;2.70;;
19111;SDS011;9688;51.906;8.376;2022-07-23T12:37:29;5.20;;;1.83;;
19111;SDS011;9688;51.906;8.376;2022-07-23T12:40:35;3.05;;;2.00;;
19111;SDS011;9688;51.906;8.376;2022-07-23T12:43:45;5.13;;;1.80;;
19111;SDS011;9688;51.906;8.376;2022-07-23T12:46:51;5.53;;;1.75;;
19111;SDS011;9688;51.906;8.376;2022-07-23T12:49:56;2.22;;;2.03;;
19111;SDS011;9688;51.906;8.376;2022-07-23T12:53:06;2.92;;;1.52;;
19111;SDS011;9688;51.906;8.376;2022-07-23T12:56:12;3.17;;;1.65;;
19111;SDS011;9688;51.906;8.376;2022-07-23T12:59:18;1.63;;;1.40;;
19111;SDS011;9688;51.906;8.376;2022-07-23T13:02:23;1.95;;;1.40;;
19111;SDS011;9688;51.906;8.376;2022-07-23T13:05:28;2.95;;;1.40;;
19111;SDS011;9688;51.906;8.376;2022-07-23T13:08:36;1.70;;;1.60;;
19111;SDS011;9688;51.906;8.376;2022-07-23T13:11:43;2.65;;;1.40;;
19111;SDS011;9688;51.906;8.376;2022-07-23T13:14:48;1.95;;;1.40;;
19111;SDS011;9688;51.906;8.376;2022-07-23T13:17:53;1.88;;;1.70;;
19111;SDS011;9688;51.906;8.376;2022-07-23T13:20:57;2.60;;;1.40;;
19111;SDS011;9688;51.906;8.376;2022-07-23T13:24:04;1.40;;;1.05;;
19111;SDS011;9688;51.906;8.376;2022-07-23T13:27:09;1.75;;;1.20;;
19111;SDS011;9688;51.906;8.376;2022-07-23T13:30:14;1.20;;;1.20;;
19111;SDS011;9688;51.906;8.376;2022-07-23T13:33:20;3.33;;;1.25;;
19111;SDS011;9688;51.906;8.376;2022-07-23T13:36:28;2.20;;;1.50;;
19111;SDS011;9688;51.906;8.376;2022-07-23T13:39:37;1.75;;;1.60;;
19111;SDS011;9688;51.906;8.376;2022-07-23T13:42:41;2.38;;;1.55;;
19111;SDS011;9688;51.906;8.376;2022-07-23T13:45:46;1.45;;;1.30;;
19111;SDS011;9688;51.906;8.376;2022-07-23T13:48:51;3.72;;;2.53;;
19111;SDS011;9688;51.906;8.376;2022-07-23T13:51:56;1.83;;;1.73;;
19111;SDS011;9688;51.906;8.376;2022-07-23T13:55:03;1.30;;;1.20;;
19111;SDS011;9688;51.906;8.376;2022-07-23T13:58:10;1.48;;;1.40;;
19111;SDS011;9688;51.906;8.376;2022-07-23T14:01:16;2.42;;;1.20;;
19111;SDS011;9688;51.906;8.376;2022-07-23T14:04:21;2.28;;;1.55;;
19111;SDS011;9688;51.906;8.376;2022-07-23T14:07:25;1.30;;;1.30;;
19111;SDS011;9688;51.906;8.376;2022-07-23T14:10:32;1.30;;;1.20;;
19111;SDS011;9688;51.906;8.376;2022-07-23T14:13:36;2.90;;;1.40;;
19111;SDS011;9688;51.906;8.376;2022-07-23T14:16:41;1.40;;;1.30;;
19111;SDS011;9688;51.906;8.376;2022-07-23T14:19:46;1.52;;;1.42;;
19111;SDS011;9688;51.906;8.376;2022-07-23T14:22:51;1.95;;;1.30;;
19111;SDS011;9688;51.906;8.376;2022-07-23T14:25:59;2.28;;;1.52;;
19111;SDS011;9688;51.906;8.376;2022-07-23T14:29:04;3.53;;;1.50;;
19111;SDS011;9688;51.906;8.376;2022-07-23T14:32:09;2.22;;;2.03;;
19111;SDS011;9688;51.906;8.376;2022-07-23T14:35:14;1.38;;;1.23;;
19111;SDS011;9688;51.906;8.376;2022-07-23T14:38:19;2.70;;;1.60;;
19111;SDS011;9688;51.906;8.376;2022-07-23T14:41:26;2.55;;;1.40;;
19111;SDS011;9688;51.906;8.376;2022-07-23T14:44:30;2.97;;;1.70;;
19111;SDS011;9688;51.906;8.376;2022-07-23T14:47:35;1.30;;;1.30;;
19111;SDS011;9688;51.906;8.376;2022-07-23T14:50:41;2.15;;;1.83;;
19111;SDS011;9688;51.906;8.376;2022-07-23T14:53:47;1.25;;;1.25;;
19111;SDS011;9688;51.906;8.376;2022-07-23T14:56:55;1.58;;;1.48;;
19111;SDS011;9688;51.906;8.376;2022-07-23T15:00:05;2.70;;;1.58;;
19111;SDS011;9688;51.906;8.376;2022-07-23T15:03:10;1.38;;;1.38;;
19111;SDS011;9688;51.906;8.376;2022-07-23T15:06:15;2.30;;;1.63;;
19111;SDS011;9688;51.906;8.376;2022-07-23T15:09:20;1.63;;;1.52;;
19111;SDS011;9688;51.906;8.376;2022-07-23T15:12:26;2.00;;;1.35;;
19111;SDS011;9688;51.906;8.376;2022-07-23T15:15:31;2.45;;;1.58;;
19111;SDS011;9688;51.906;8.376;2022-07-23T15:18:36;1.98;;;1.80;;
19111;SDS011;9688;51.906;8.376;2022-07-23T15:21:40;1.70;;;1.60;;
19111;SDS011;9688;51.906;8.376;2022-07-23T15:24:45;2.10;;;1.48;;
19111;SDS011;9688;51.906;8.376;2022-07-23T15:27:51;2.53;;;1.77;;
19111;SDS011;9688;51.906;8.376;2022-07-23T15:30:56;3.40;;;1.60;;
19111;SDS011;9688;51.906;8.376;2022-07-23T15:34:01;1.60;;;1.50;;
19111;SDS011;9688;51.906;8.376;2022-07-23T15:37:06;4.10;;;1.60;;
19111;SDS011;9688;51.906;8.376;2022-07-23T15:40:13;1.52;;;1.50;;
19111;SDS011;9688;51.906;8.376;2022-07-23T15:43:19;1.92;;;1.75;;
19111;SDS011;9688;51.906;8.376;2022-07-23T15:46:24;1.98;;;1.50;;
19111;SDS011;9688;51.906;8.376;2022-07-23T15:49:28;2.38;;;1.50;;
19111;SDS011;9688;51.906;8.376;2022-07-23T15:52:32;1.80;;;1.70;;
19111;SDS011;9688;51.906;8.376;2022-07-23T15:55:38;1.85;;;1.75;;
19111;SDS011;9688;51.906;8.376;2022-07-23T15:58:44;1.90;;;1.80;;
19111;SDS011;9688;51.906;8.376;2022-07-23T16:01:48;1.50;;;1.40;;
19111;SDS011;9688;51.906;8.376;2022-07-23T16:04:53;2.00;;;1.90;;
19111;SDS011;9688;51.906;8.376;2022-07-23T16:07:57;1.80;;;1.70;;
19111;SDS011;9688;51.906;8.376;2022-07-23T16:11:03;1.70;;;1.60;;
19111;SDS011;9688;51.906;8.376;2022-07-23T16:14:08;3.47;;;1.70;;
19111;SDS011;9688;51.906;8.376;2022-07-23T16:17:13;1.95;;;1.60;;
19111;SDS011;9688;51.906;8.376;2022-07-23T16:20:18;1.75;;;1.42;;
19111;SDS011;9688;51.906;8.376;2022-07-23T16:23:22;2.53;;;1.80;;
19111;SDS011;9688;51.906;8.376;2022-07-23T16:26:27;1.40;;;1.30;;
19111;SDS011;9688;51.906;8.376;2022-07-23T16:29:33;5.38;;;1.90;;
19111;SDS011;9688;51.906;8.376;2022-07-23T16:32:38;2.15;;;1.90;;
19111;SDS011;9688;51.906;8.376;2022-07-23T16:35:43;1.67;;;1.55;;
19111;SDS011;9688;51.906;8.376;2022-07-23T16:38:48;3.20;;;1.80;;
19111;SDS011;9688;51.906;8.376;2022-07-23T16:41:52;2.25;;;1.65;;
19111;SDS011;9688;51.906;8.376;2022-07-23T16:44:59;3.97;;;1.77;;
19111;SDS011;9688;51.906;8.376;2022-07-23T16:48:03;2.05;;;1.85;;
19111;SDS011;9688;51.906;8.376;2022-07-23T16:51:08;1.92;;;1.83;;
19111;SDS011;9688;51.906;8.376;2022-07-23T16:54:13;2.58;;;1.75;;
19111;SDS011;9688;51.906;8.376;2022-07-23T16:57:20;1.65;;;1.58;;
19111;SDS011;9688;51.906;8.376;2022-07-23T17:00:26;6.82;;;1.75;;
19111;SDS011;9688;51.906;8.376;2022-07-23T17:03:31;2.40;;;1.88;;
19111;SDS011;9688;51.906;8.376;2022-07-23T17:06:36;1.63;;;1.50;;
19111;SDS011;9688;51.906;8.376;2022-07-23T17:09:40;1.80;;;1.70;;
19111;SDS011;9688;51.906;8.376;2022-07-23T17:12:45;2.20;;;1.60;;
19111;SDS011;9688;51.906;8.376;2022-07-23T17:15:52;1.35;;;1.25;;
19111;SDS011;9688;51.906;8.376;2022-07-23T17:18:58;1.70;;;1.60;;
19111;SDS011;9688;51.906;8.376;2022-07-23T17:22:04;2.90;;;1.70;;
19111;SDS011;9688;51.906;8.376;2022-07-23T17:25:10;1.80;;;1.60;;
19111;SDS011;9688;51.906;8.376;2022-07-23T17:28:16;1.92;;;1.50;;
19111;SDS011;9688;51.906;8.376;2022-07-23T17:31:22;1.65;;;1.55;;
19111;SDS011;9688;51.906;8.376;2022-07-23T17:34:27;1.60;;;1.50;;
19111;SDS011;9688;51.906;8.376;2022-07-23T17:37:31;1.90;;;1.80;;
19111;SDS011;9688;51.906;8.376;2022-07-23T17:40:36;1.80;;;1.70;;
19111;SDS011;9688;51.906;8.376;2022-07-23T17:43:41;1.67;;;1.40;;
19111;SDS011;9688;51.906;8.376;2022-07-23T17:46:47;2.00;;;1.70;;
19111;SDS011;9688;51.906;8.376;2022-07-23T17:49:52;2.97;;;1.60;;
19111;SDS011;9688;51.906;8.376;2022-07-23T17:52:58;1.92;;;1.75;;
19111;SDS011;9688;51.906;8.376;2022-07-23T17:56:03;2.17;;;1.60;;
19111;SDS011;9688;51.906;8.376;2022-07-23T17:59:08;3.08;;;1.60;;
19111;SDS011;9688;51.906;8.376;2022-07-23T18:02:14;3.08;;;1.65;;
19111;SDS011;9688;51.906;8.376;2022-07-23T18:05:19;2.05;;;1.90;;
19111;SDS011;9688;51.906;8.376;2022-07-23T18:08:24;2.25;;;1.70;;
19111;SDS011;9688;51.906;8.376;2022-07-23T18:11:28;2.03;;;1.80;;
19111;SDS011;9688;51.906;8.376;2022-07-23T18:14:33;2.13;;;1.55;;
19111;SDS011;9688;51.906;8.376;2022-07-23T18:17:39;3.08;;;1.90;;
19111;SDS011;9688;51.906;8.376;2022-07-23T18:20:45;4.85;;;1.70;;
19111;SDS011;9688;51.906;8.376;2022-07-23T18:23:51;3.78;;;1.90;;
19111;SDS011;9688;51.906;8.376;2022-07-23T18:26:56;2.20;;;1.70;;
19111;SDS011;9688;51.906;8.376;2022-07-23T18:30:02;3.38;;;1.50;;
19111;SDS011;9688;51.906;8.376;2022-07-23T18:33:13;1.92;;;1.58;;
19111;SDS011;9688;51.906;8.376;2022-07-23T18:36:18;1.75;;;1.45;;
19111;SDS011;9688;51.906;8.376;2022-07-23T18:39:23;1.92;;;1.73;;
19111;SDS011;9688;51.906;8.376;2022-07-23T18:42:28;2.83;;;1.55;;
19111;SDS011;9688;51.906;8.376;2022-07-23T18:45:32;2.33;;;1.80;;
19111;SDS011;9688;51.906;8.376;2022-07-23T18:48:38;1.85;;;1.70;;
19111;SDS011;9688;51.906;8.376;2022-07-23T18:51:43;2.05;;;1.92;;
19111;SDS011;9688;51.906;8.376;2022-07-23T18:54:47;1.63;;;1.55;;
19111;SDS011;9688;51.906;8.376;2022-07-23T18:57:52;1.75;;;1.67;;
19111;SDS011;9688;51.906;8.376;2022-07-23T19:00:58;2.20;;;1.65;;
19111;SDS011;9688;51.906;8.376;2022-07-23T19:04:04;2.20;;;1.60;;
19111;SDS011;9688;51.906;8.376;2022-07-23T19:07:09;1.65;;;1.55;;
19111;SDS011;9688;51.906;8.376;2022-07-23T19:10:14;1.88;;;1.73;;
19111;SDS011;9688;51.906;8.376;2022-07-23T19:13:18;1.70;;;1.60;;
19111;SDS011;9688;51.906;8.376;2022-07-23T19:16:23;1.80;;;1.70;;
19111;SDS011;9688;51.906;8.376;2022-07-23T19:19:30;1.98;;;1.77;;
19111;SDS011;9688;51.906;8.376;2022-07-23T19:22:35;1.63;;;1.52;;
19111;SDS011;9688;51.906;8.376;2022-07-23T19:25:40;2.10;;;1.88;;
19111;SDS011;9688;51.906;8.376;2022-07-23T19:28:45;2.33;;;1.70;;
19111;SDS011;9688;51.906;8.376;2022-07-23T19:31:50;2.22;;;1.70;;
19111;SDS011;9688;51.906;8.376;2022-07-23T19:34:56;2.10;;;1.80;;
19111;SDS011;9688;51.906;8.376;2022-07-23T19:38:01;2.63;;;2.38;;
19111;SDS011;9688;51.906;8.376;2022-07-23T19:41:06;3.93;;;2.40;;
19111;SDS011;9688;51.906;8.376;2022-07-23T19:44:11;2.28;;;2.13;;
19111;SDS011;9688;51.906;8.376;2022-07-23T19:47:16;3.03;;;2.70;;
19111;SDS011;9688;51.906;8.376;2022-07-23T19:50:26;2.90;;;2.55;;
19111;SDS011;9688;51.906;8.376;2022-07-23T19:58:13;2.30;;;1.87;;
19111;SDS011;9688;51.906;8.376;2022-07-23T20:01:18;3.40;;;1.93;;
19111;SDS011;9688;51.906;8.376;2022-07-23T20:04:23;2.20;;;2.10;;
19111;SDS011;9688;51.906;8.376;2022-07-23T20:07:29;5.30;;;2.33;;
19111;SDS011;9688;51.906;8.376;2022-07-23T20:10:34;2.38;;;2.10;;
19111;SDS011;9688;51.906;8.376;2022-07-23T20:13:39;3.88;;;2.20;;
19111;SDS011;9688;51.906;8.376;2022-07-23T20:16:44;2.95;;;2.00;;
19111;SDS011;9688;51.906;8.376;2022-07-23T20:19:49;2.10;;;1.90;;
19111;SDS011;9688;51.906;8.376;2022-07-23T20:22:55;2.33;;;1.80;;
19111;SDS011;9688;51.906;8.376;2022-07-23T20:26:00;3.23;;;2.43;;
19111;SDS011;9688;51.906;8.376;2022-07-23T20:29:05;2.23;;;2.03;;
19111;SDS011;9688;51.906;8.376;2022-07-23T20:32:10;2.20;;;2.00;;
19111;SDS011;9688;51.906;8.376;2022-07-23T20:35:15;4.57;;;2.57;;
19111;SDS011;9688;51.906;8.376;2022-07-23T20:38:21;4.67;;;2.67;;
19111;SDS011;9688;51.906;8.376;2022-07-23T20:41:25;3.33;;;2.40;;
19111;SDS011;9688;51.906;8.376;2022-07-23T20:44:30;2.70;;;2.60;;
19111;SDS011;9688;51.906;8.376;2022-07-23T20:47:35;2.80;;;2.60;;
19111;SDS011;9688;51.906;8.376;2022-07-23T20:50:41;2.50;;;2.30;;
19111;SDS011;9688;51.906;8.376;2022-07-23T20:53:49;3.27;;;2.60;;
19111;SDS011;9688;51.906;8.376;2022-07-23T20:56:54;2.80;;;2.60;;
19111;SDS011;9688;51.906;8.376;2022-07-23T20:59:58;4.13;;;3.23;;
19111;SDS011;9688;51.906;8.376;2022-07-23T21:03:03;6.50;;;4.20;;
19111;SDS011;9688;51.906;8.376;2022-07-23T21:06:08;8.70;;;5.83;;
19111;SDS011;9688;51.906;8.376;2022-07-23T21:09:14;8.17;;;5.40;;
19111;SDS011;9688;51.906;8.376;2022-07-23T21:12:19;5.67;;;4.60;;
19111;SDS011;9688;51.906;8.376;2022-07-23T21:15:24;9.60;;;5.90;;
19111;SDS011;9688;51.906;8.376;2022-07-23T21:18:29;4.37;;;3.97;;
19111;SDS011;9688;51.906;8.376;2022-07-23T21:21:34;4.77;;;3.87;;
19111;SDS011;9688;51.906;8.376;2022-07-23T21:24:40;8.00;;;3.47;;
19111;SDS011;9688;51.906;8.376;2022-07-23T21:27:44;5.43;;;4.13;;
19111;SDS011;9688;51.906;8.376;2022-07-23T21:30:49;6.40;;;3.83;;
19111;SDS011;9688;51.906;8.376;2022-07-23T21:33:54;3.57;;;3.27;;
19111;SDS011;9688;51.906;8.376;2022-07-23T21:36:59;6.37;;;4.23;;
19111;SDS011;9688;51.906;8.376;2022-07-23T21:40:07;7.27;;;4.60;;
19111;SDS011;9688;51.906;8.376;2022-07-23T21:43:13;6.83;;;3.57;;
19111;SDS011;9688;51.906;8.376;2022-07-23T21:46:18;4.33;;;3.00;;
19111;SDS011;9688;51.906;8.376;2022-07-23T21:49:23;4.23;;;3.13;;
19111;SDS011;9688;51.906;8.376;2022-07-23T21:52:27;4.13;;;2.67;;
19111;SDS011;9688;51.906;8.376;2022-07-23T21:55:34;4.17;;;2.50;;
19111;SDS011;9688;51.906;8.376;2022-07-23T21:58:39;2.83;;;2.50;;
19111;SDS011;9688;51.906;8.376;2022-07-23T22:01:43;2.50;;;2.40;;
19111;SDS011;9688;51.906;8.376;2022-07-23T22:04:48;2.47;;;2.27;;
19111;SDS011;9688;51.906;8.376;2022-07-23T22:07:52;2.67;;;2.50;;
19111;SDS011;9688;51.906;8.376;2022-07-23T22:10:58;2.80;;;2.60;;
19111;SDS011;9688;51.906;8.376;2022-07-23T22:14:03;3.40;;;2.73;;
19111;SDS011;9688;51.906;8.376;2022-07-23T22:17:07;3.13;;;2.83;;
19111;SDS011;9688;51.906;8.376;2022-07-23T22:20:13;2.90;;;2.70;;
19111;SDS011;9688;51.906;8.376;2022-07-23T22:23:18;3.73;;;2.60;;
19111;SDS011;9688;51.906;8.376;2022-07-23T22:26:24;3.97;;;2.87;;
19111;SDS011;9688;51.906;8.376;2022-07-23T22:29:29;3.10;;;2.80;;
19111;SDS011;9688;51.906;8.376;2022-07-23T22:32:34;3.17;;;2.60;;
19111;SDS011;9688;51.906;8.376;2022-07-23T22:35:39;2.57;;;2.43;;
19111;SDS011;9688;51.906;8.376;2022-07-23T22:38:43;4.53;;;2.50;;
19111;SDS011;9688;51.906;8.376;2022-07-23T22:41:49;3.57;;;2.37;;
19111;SDS011;9688;51.906;8.376;2022-07-23T22:44:54;2.20;;;2.10;;
19111;SDS011;9688;51.906;8.376;2022-07-23T22:47:59;2.67;;;2.20;;
19111;SDS011;9688;51.906;8.376;2022-07-23T22:51:04;2.73;;;2.30;;
19111;SDS011;9688;51.906;8.376;2022-07-23T22:54:08;3.13;;;2.20;;
19111;SDS011;9688;51.906;8.376;2022-07-23T22:57:14;4.50;;;2.60;;
19111;SDS011;9688;51.906;8.376;2022-07-23T23:00:19;3.17;;;2.83;;
19111;SDS011;9688;51.906;8.376;2022-07-23T23:03:24;4.90;;;2.73;;
19111;SDS011;9688;51.906;8.376;2022-07-23T23:06:29;3.60;;;2.63;;
19111;SDS011;9688;51.906;8.376;2022-07-23T23:09:33;3.40;;;2.60;;
19111;SDS011;9688;51.906;8.376;2022-07-23T23:12:39;4.53;;;2.33;;
19111;SDS011;9688;51.906;8.376;2022-07-23T23:15:43;3.70;;;2.90;;
19111;SDS011;9688;51.906;8.376;2022-07-23T23:18:48;4.50;;;2.67;;
19111;SDS011;9688;51.906;8.376;2022-07-23T23:21:52;2.83;;;2.50;;
19111;SDS011;9688;51.906;8.376;2022-07-23T23:24:57;3.10;;;2.80;;
19111;SDS011;9688;51.906;8.376;2022-07-23T23:28:03;5.00;;;3.10;;
19111;SDS011;9688;51.906;8.376;2022-07-23T23:31:08;4.20;;;3.17;;
19111;SDS011;9688;51.906;8.376;2022-07-23T23:34:13;4.70;;;3.27;;
19111;SDS011;9688;51.906;8.376;2022-07-23T23:37:18;5.50;;;3.57;;
19111;SDS011;9688;51.906;8.376;2022-07-23T23:40:23;3.33;;;3.13;;
19111;SDS011;9688;51.906;8.376;2022-07-23T23:43:29;3.43;;;3.00;;
19111;SDS011;9688;51.906;8.376;2022-07-23T23:46:34;3.87;;;2.80;;
19111;SDS011;9688;51.906;8.376;2022-07-23T23:49:38;4.93;;;3.03;;
19111;SDS011;9688;51.906;8.376;2022-07-23T23:52:43;3.07;;;2.87;;
19111;SDS011;9688;51.906;8.376;2022-07-23T23:55:48;3.40;;;2.70;;
19111;SDS011;9688;51.906;8.376;2022-07-23T23:58:54;3.20;;;2.90;;
